createdAt,value
2018-01-30T00:01:05.991Z,3.47
2018-01-30T00:03:34.261Z,3.97
2018-01-30T00:06:02.557Z,3.27
2018-01-30T00:08:30.778Z,3.90
2018-01-30T00:10:58.384Z,4.07
2018-01-30T00:13:26.636Z,3.87
2018-01-30T00:15:54.201Z,4.37
2018-01-30T00:18:22.083Z,3.87
2018-01-30T00:20:50.332Z,3.70
2018-01-30T00:23:17.815Z,3.60
2018-01-30T00:25:46.128Z,3.50
2018-01-30T00:28:13.606Z,3.37
2018-01-30T00:30:41.100Z,4.10
2018-01-30T00:33:08.579Z,4.77
2018-01-30T00:35:36.811Z,4.20
2018-01-30T00:38:04.299Z,4.77
2018-01-30T00:40:32.564Z,4.30
2018-01-30T00:43:00.010Z,3.83
2018-01-30T00:45:27.490Z,4.17
2018-01-30T00:47:54.958Z,4.33
2018-01-30T00:50:23.223Z,4.30
2018-01-30T00:52:51.458Z,3.83
2018-01-30T00:55:18.914Z,4.43
2018-01-30T00:57:46.407Z,4.17
2018-01-30T01:00:13.883Z,5.67
2018-01-30T01:02:42.151Z,4.50
2018-01-30T01:05:09.622Z,4.10
2018-01-30T01:07:37.887Z,4.23
2018-01-30T01:10:06.164Z,3.80
2018-01-30T01:12:34.419Z,4.23
2018-01-30T01:15:01.959Z,4.97
2018-01-30T01:17:29.422Z,4.13
2018-01-30T01:19:57.119Z,4.33
2018-01-30T01:22:25.369Z,4.13
2018-01-30T01:24:52.855Z,3.70
2018-01-30T01:27:20.380Z,4.00
2018-01-30T01:29:47.871Z,4.07
2018-01-30T01:32:15.330Z,4.20
2018-01-30T01:34:42.787Z,4.30
2018-01-30T01:37:10.239Z,4.30
2018-01-30T01:39:37.713Z,3.83
2018-01-30T01:42:05.947Z,4.57
2018-01-30T01:47:15.337Z,4.33
2018-01-30T01:49:42.797Z,3.70
2018-01-30T01:52:11.072Z,4.13
2018-01-30T01:54:38.567Z,3.63
2018-01-30T01:57:06.100Z,3.50
2018-01-30T01:59:34.315Z,3.77
2018-01-30T02:02:01.795Z,3.33
2018-01-30T02:04:29.302Z,3.37
2018-01-30T02:06:57.530Z,3.37
2018-01-30T02:09:25.018Z,3.70
2018-01-30T02:11:53.262Z,2.83
2018-01-30T02:14:20.763Z,3.53
2018-01-30T02:16:49.189Z,3.63
2018-01-30T02:19:16.689Z,3.00
2018-01-30T02:21:44.975Z,4.00
2018-01-30T02:24:13.223Z,3.90
2018-01-30T02:26:40.754Z,3.70
2018-01-30T02:29:08.248Z,3.60
2018-01-30T02:31:35.717Z,4.10
2018-01-30T02:34:03.183Z,3.97
2018-01-30T02:36:30.643Z,4.00
2018-01-30T02:38:58.085Z,4.40
2018-01-30T02:41:25.548Z,4.87
2018-01-30T02:43:53.812Z,5.00
2018-01-30T02:46:21.283Z,5.47
2018-01-30T02:48:48.814Z,4.80
2018-01-30T02:51:16.376Z,5.53
2018-01-30T02:53:43.947Z,5.83
2018-01-30T02:56:11.510Z,5.53
2018-01-30T02:58:39.058Z,6.13
2018-01-30T03:01:06.577Z,6.03
2018-01-30T03:03:34.828Z,6.67
2018-01-30T03:06:03.045Z,6.80
2018-01-30T03:08:30.630Z,7.00
2018-01-30T03:10:58.144Z,7.23
2018-01-30T03:13:26.505Z,7.83
2018-01-30T03:15:54.083Z,7.77
2018-01-30T03:18:22.381Z,7.50
2018-01-30T03:20:49.911Z,7.60
2018-01-30T03:23:18.161Z,8.03
2018-01-30T03:25:45.678Z,8.30
2018-01-30T03:28:13.242Z,8.37
2018-01-30T03:30:40.811Z,7.90
2018-01-30T03:33:08.438Z,9.13
2018-01-30T03:35:36.818Z,8.60
2018-01-30T03:38:05.192Z,8.77
2018-01-30T03:40:33.482Z,7.87
2018-01-30T03:43:00.964Z,9.93
2018-01-30T03:45:28.418Z,8.80
2018-01-30T03:47:55.991Z,9.33
2018-01-30T03:50:23.483Z,10.00
2018-01-30T03:52:51.002Z,9.80
2018-01-30T03:55:18.560Z,9.47
2018-01-30T03:57:46.186Z,10.13
2018-01-30T04:00:13.786Z,10.57
2018-01-30T04:02:41.352Z,12.40
2018-01-30T04:05:08.958Z,11.37
2018-01-30T04:07:37.228Z,11.50
2018-01-30T04:10:04.868Z,11.20
2018-01-30T04:12:32.381Z,11.17
2018-01-30T04:14:59.954Z,11.83
2018-01-30T04:17:27.554Z,12.40
2018-01-30T04:19:55.183Z,11.70
2018-01-30T04:22:22.714Z,11.20
2018-01-30T04:24:51.064Z,11.97
2018-01-30T04:27:18.555Z,12.53
2018-01-30T04:29:46.835Z,13.53
2018-01-30T04:32:15.083Z,13.40
2018-01-30T04:34:42.566Z,13.00
2018-01-30T04:37:10.189Z,13.93
2018-01-30T04:39:38.198Z,14.03
2018-01-30T04:42:06.462Z,14.50
2018-01-30T04:44:35.016Z,15.30
2018-01-30T04:47:02.587Z,14.60
2018-01-30T04:49:30.078Z,13.73
2018-01-30T04:51:57.637Z,15.47
2018-01-30T04:54:25.908Z,16.13
2018-01-30T04:56:53.627Z,16.20
2018-01-30T04:59:21.112Z,15.80
2018-01-30T05:01:48.683Z,17.40
2018-01-30T05:04:16.227Z,17.40
2018-01-30T05:06:43.698Z,17.03
2018-01-30T05:09:11.962Z,18.43
2018-01-30T05:11:39.418Z,17.10
2018-01-30T05:14:06.979Z,18.47
2018-01-30T05:16:35.273Z,18.17
2018-01-30T05:19:03.543Z,18.17
2018-01-30T05:21:31.103Z,18.63
2018-01-30T05:23:59.384Z,19.07
2018-01-30T05:26:27.660Z,20.50
2018-01-30T05:28:55.278Z,19.93
2018-01-30T05:31:22.777Z,21.30
2018-01-30T05:33:51.047Z,21.10
2018-01-30T05:36:18.502Z,20.83
2018-01-30T05:38:46.059Z,21.23
2018-01-30T05:41:13.603Z,22.30
2018-01-30T05:43:41.136Z,21.67
2018-01-30T05:46:08.669Z,21.87
2018-01-30T05:48:36.142Z,23.97
2018-01-30T05:51:04.366Z,21.70
2018-01-30T05:53:31.923Z,22.43
2018-01-30T05:55:59.492Z,20.83
2018-01-30T05:58:28.145Z,22.07
2018-01-30T06:00:55.682Z,22.50
2018-01-30T06:03:23.974Z,22.47
2018-01-30T06:05:51.574Z,21.13
2018-01-30T06:08:19.118Z,20.20
2018-01-30T06:10:46.875Z,21.43
2018-01-30T06:13:14.455Z,22.70
2018-01-30T06:15:42.003Z,20.33
2018-01-30T06:18:09.562Z,21.00
2018-01-30T06:20:37.070Z,21.23
2018-01-30T06:23:05.450Z,23.03
2018-01-30T06:25:33.763Z,21.30
2018-01-30T06:28:01.437Z,21.43
2018-01-30T06:30:29.044Z,21.40
2018-01-30T06:32:56.647Z,20.30
2018-01-30T06:35:25.137Z,21.30
2018-01-30T06:37:52.642Z,21.23
2018-01-30T06:40:20.236Z,22.20
2018-01-30T06:42:47.863Z,21.20
2018-01-30T06:45:15.423Z,21.10
2018-01-30T06:47:42.918Z,19.60
2018-01-30T06:50:10.497Z,20.53
2018-01-30T06:52:37.978Z,21.47
2018-01-30T06:55:05.486Z,20.77
2018-01-30T06:57:33.745Z,20.70
2018-01-30T07:00:01.240Z,21.53
2018-01-30T07:02:28.789Z,22.03
2018-01-30T07:04:56.349Z,20.50
2018-01-30T07:07:23.897Z,20.10
2018-01-30T07:09:51.550Z,21.53
2018-01-30T07:12:19.051Z,21.00
2018-01-30T07:14:46.549Z,21.27
2018-01-30T07:17:14.005Z,19.57
2018-01-30T07:19:41.510Z,20.53
2018-01-30T07:22:09.856Z,20.77
2018-01-30T07:24:37.404Z,24.93
2018-01-30T07:27:04.936Z,22.00
2018-01-30T07:29:33.235Z,21.17
2018-01-30T07:32:00.846Z,21.40
2018-01-30T07:34:28.366Z,20.67
2018-01-30T07:36:55.943Z,19.77
2018-01-30T07:39:24.207Z,18.50
2018-01-30T07:41:51.779Z,20.87
2018-01-30T07:44:20.217Z,18.67
2018-01-30T07:46:47.819Z,19.80
2018-01-30T07:49:16.115Z,19.40
2018-01-30T07:51:43.653Z,19.07
2018-01-30T07:54:11.335Z,20.40
2018-01-30T07:56:39.695Z,20.03
2018-01-30T07:59:07.963Z,19.13
2018-01-30T08:01:35.549Z,19.17
2018-01-30T08:04:03.799Z,18.10
2018-01-30T08:06:34.970Z,17.57
2018-01-30T08:09:03.452Z,17.47
2018-01-30T08:11:31.690Z,17.33
2018-01-30T08:14:00.000Z,19.07
2018-01-30T08:16:27.681Z,20.20
2018-01-30T08:18:56.031Z,18.77
2018-01-30T08:21:23.501Z,17.60
2018-01-30T08:23:51.731Z,18.80
2018-01-30T08:26:19.295Z,19.00
2018-01-30T08:28:46.850Z,18.00
2018-01-30T08:31:14.353Z,19.97
2018-01-30T08:33:42.628Z,18.53
2018-01-30T08:36:10.135Z,19.90
2018-01-30T08:38:38.439Z,19.47
2018-01-30T08:41:05.985Z,19.30
2018-01-30T08:43:33.450Z,18.03
2018-01-30T08:46:00.952Z,19.30
2018-01-30T08:48:29.285Z,19.37
2018-01-30T08:50:56.835Z,20.00
2018-01-30T08:53:24.399Z,18.53
2018-01-30T08:55:51.859Z,19.97
2018-01-30T08:58:19.340Z,19.33
2018-01-30T09:00:47.319Z,17.63
2018-01-30T09:03:15.723Z,18.63
2018-01-30T09:05:44.197Z,18.23
2018-01-30T09:08:12.481Z,17.80
2018-01-30T09:10:40.958Z,17.90
2018-01-30T09:13:09.536Z,16.00
2018-01-30T09:15:39.798Z,16.53
2018-01-30T09:18:07.482Z,18.33
2018-01-30T09:20:35.082Z,17.90
2018-01-30T09:23:02.642Z,16.40
2018-01-30T09:25:30.262Z,19.67
2018-01-30T09:27:58.215Z,16.53
2018-01-30T09:30:25.837Z,17.33
2018-01-30T09:32:54.185Z,16.90
2018-01-30T09:35:21.819Z,15.90
2018-01-30T09:37:49.424Z,16.70
2018-01-30T09:40:17.044Z,17.00
2018-01-30T09:42:44.556Z,16.03
2018-01-30T09:45:12.023Z,17.90
2018-01-30T09:47:40.287Z,17.90
2018-01-30T09:50:07.792Z,18.67
2018-01-30T09:52:35.307Z,17.60
2018-01-30T09:55:02.863Z,14.20
2018-01-30T09:57:31.142Z,16.50
2018-01-30T09:59:58.687Z,15.47
2018-01-30T10:02:26.155Z,13.57
2018-01-30T10:05:03.964Z,13.90
2018-01-30T10:07:41.979Z,13.43
2018-01-30T10:10:10.218Z,14.53
2018-01-30T10:12:37.720Z,13.30
2018-01-30T10:15:05.994Z,13.67
2018-01-30T10:17:34.251Z,13.80
2018-01-30T10:20:01.803Z,13.23
2018-01-30T10:22:29.305Z,12.60
2018-01-30T10:24:56.756Z,13.33
2018-01-30T10:27:25.003Z,13.43
2018-01-30T10:29:52.476Z,14.20
2018-01-30T10:32:20.730Z,13.60
2018-01-30T10:34:48.208Z,12.80
2018-01-30T10:37:16.468Z,12.67
2018-01-30T10:39:43.947Z,13.33
2018-01-30T10:42:11.446Z,13.30
2018-01-30T10:44:38.935Z,13.60
2018-01-30T10:47:06.433Z,13.37
2018-01-30T10:49:34.674Z,12.70
2018-01-30T10:52:02.206Z,13.37
2018-01-30T10:54:29.718Z,13.03
2018-01-30T10:56:57.187Z,12.30
2018-01-30T10:59:25.463Z,12.40
2018-01-30T11:01:53.683Z,14.70
2018-01-30T11:04:21.194Z,13.70
2018-01-30T11:06:49.458Z,13.43
2018-01-30T11:09:16.974Z,13.37
2018-01-30T11:11:44.495Z,14.17
2018-01-30T11:14:12.748Z,14.00
2018-01-30T11:16:40.210Z,13.67
2018-01-30T11:19:07.693Z,14.07
2018-01-30T11:21:35.930Z,13.90
2018-01-30T11:24:03.456Z,13.60
2018-01-30T11:26:30.912Z,15.30
2018-01-30T11:28:58.408Z,14.10
2018-01-30T11:31:25.880Z,14.10
2018-01-30T11:33:54.382Z,14.40
2018-01-30T11:36:22.599Z,15.10
2018-01-30T11:38:50.129Z,20.90
2018-01-30T11:41:17.668Z,12.50
2018-01-30T11:43:45.059Z,12.97
2018-01-30T11:46:12.574Z,16.87
2018-01-30T11:48:40.031Z,11.77
2018-01-30T11:51:07.483Z,13.43
2018-01-30T11:53:34.952Z,10.93
2018-01-30T11:56:02.446Z,11.13
2018-01-30T11:58:29.951Z,11.63
2018-01-30T12:00:57.471Z,11.40
2018-01-30T12:03:24.959Z,10.40
2018-01-30T12:05:52.463Z,10.70
2018-01-30T12:08:20.687Z,11.43
2018-01-30T12:10:48.240Z,12.50
2018-01-30T12:13:15.713Z,12.67
2018-01-30T12:15:43.253Z,12.23
2018-01-30T12:18:10.716Z,12.30
2018-01-30T12:20:38.235Z,12.40
2018-01-30T12:23:05.654Z,12.67
2018-01-30T12:25:33.134Z,12.63
2018-01-30T12:28:01.375Z,13.80
2018-01-30T12:30:28.823Z,15.20
2018-01-30T12:32:56.332Z,14.30
2018-01-30T12:35:24.579Z,17.07
2018-01-30T12:37:52.052Z,18.13
2018-01-30T12:40:19.528Z,17.90
2018-01-30T12:42:47.768Z,16.93
2018-01-30T12:45:15.275Z,17.83
2018-01-30T12:47:43.511Z,15.37
2018-01-30T12:50:10.991Z,16.10
2018-01-30T12:52:38.444Z,14.53
2018-01-30T12:55:05.928Z,15.67
2018-01-30T12:57:34.151Z,14.73
2018-01-30T13:00:01.619Z,14.27
2018-01-30T13:02:29.091Z,15.37
2018-01-30T13:04:56.568Z,14.83
2018-01-30T13:07:24.830Z,14.00
2018-01-30T13:09:52.296Z,13.50
2018-01-30T13:12:20.539Z,13.80
2018-01-30T13:14:48.012Z,12.90
2018-01-30T13:17:15.499Z,14.33
2018-01-30T13:19:43.798Z,14.07
2018-01-30T13:22:11.270Z,14.70
2018-01-30T13:24:38.865Z,16.40
2018-01-30T13:27:06.335Z,16.27
2018-01-30T13:29:33.794Z,15.03
2018-01-30T13:32:01.243Z,15.40
2018-01-30T13:34:28.702Z,16.03
2018-01-30T13:36:56.192Z,15.83
2018-01-30T13:39:24.428Z,13.73
2018-01-30T13:41:51.904Z,15.40
2018-01-30T13:44:19.488Z,15.87
2018-01-30T13:46:47.723Z,14.07
2018-01-30T13:49:15.195Z,14.40
2018-01-30T13:51:42.639Z,15.67
2018-01-30T13:54:10.167Z,14.97
2018-01-30T13:56:37.631Z,14.37
2018-01-30T13:59:05.086Z,14.03
2018-01-30T14:01:32.561Z,14.43
2018-01-30T14:04:00.027Z,15.70
2018-01-30T14:06:27.471Z,13.63
2018-01-30T14:08:54.953Z,14.67
2018-01-30T14:11:22.528Z,15.50
2018-01-30T14:13:50.036Z,16.60
2018-01-30T14:16:17.512Z,14.10
2018-01-30T14:18:44.946Z,14.50
2018-01-30T14:21:12.421Z,15.67
2018-01-30T14:23:39.993Z,14.00
2018-01-30T14:26:07.449Z,14.90
2018-01-30T14:28:34.903Z,13.73
2018-01-30T14:31:02.377Z,14.83
2018-01-30T14:33:29.850Z,14.67
2018-01-30T14:35:57.321Z,13.50
2018-01-30T14:38:25.561Z,13.27
2018-01-30T14:40:53.124Z,12.30
2018-01-30T14:43:20.608Z,13.87
2018-01-30T14:45:48.047Z,15.20
2018-01-30T14:48:15.539Z,13.37
2018-01-30T14:50:43.796Z,14.50
2018-01-30T14:53:11.307Z,15.77
2018-01-30T14:55:38.776Z,14.20
2018-01-30T14:58:06.245Z,15.63
2018-01-30T15:00:33.727Z,14.43
2018-01-30T15:03:01.201Z,17.53
2018-01-30T15:05:29.438Z,14.10
2018-01-30T15:07:56.920Z,17.37
2018-01-30T15:10:24.431Z,15.00
2018-01-30T15:12:51.919Z,15.10
2018-01-30T15:15:19.384Z,14.97
2018-01-30T15:17:46.841Z,14.03
2018-01-30T15:20:14.299Z,13.70
2018-01-30T15:22:42.341Z,14.10
2018-01-30T15:25:09.827Z,13.40
2018-01-30T15:27:37.455Z,13.40
2018-01-30T15:30:04.912Z,13.40
2018-01-30T15:32:32.393Z,12.10
2018-01-30T15:34:59.878Z,10.83
2018-01-30T15:37:27.344Z,11.80
2018-01-30T15:39:54.903Z,10.90
2018-01-30T15:42:22.666Z,11.43
2018-01-30T15:44:50.431Z,10.43
2018-01-30T15:47:18.011Z,11.93
2018-01-30T15:49:46.286Z,11.10
2018-01-30T15:52:14.679Z,11.70
2018-01-30T15:54:42.367Z,11.40
2018-01-30T15:57:09.936Z,12.03
2018-01-30T15:59:37.498Z,12.90
2018-01-30T16:02:05.043Z,11.20
2018-01-30T16:04:32.577Z,10.63
2018-01-30T16:07:00.094Z,11.47
2018-01-30T16:09:27.622Z,12.33
2018-01-30T16:11:55.382Z,12.53
2018-01-30T16:14:22.880Z,12.03
2018-01-30T16:16:50.342Z,12.43
2018-01-30T16:19:17.965Z,11.40
2018-01-30T16:21:45.473Z,12.30
2018-01-30T16:24:13.124Z,16.57
2018-01-30T16:26:40.706Z,15.60
2018-01-30T16:29:08.977Z,16.60
2018-01-30T16:31:36.431Z,13.13
2018-01-30T16:34:03.883Z,16.23
2018-01-30T16:36:31.368Z,13.10
2018-01-30T16:38:59.642Z,12.17
2018-01-30T16:41:27.921Z,11.27
2018-01-30T16:43:56.443Z,12.00
2018-01-30T16:46:24.251Z,12.43
2018-01-30T16:48:51.728Z,11.30
2018-01-30T16:51:19.961Z,10.77
2018-01-30T16:53:47.495Z,12.17
2018-01-30T16:56:15.026Z,12.40
2018-01-30T16:58:42.675Z,12.63
2018-01-30T17:01:10.997Z,12.20
2018-01-30T17:03:39.440Z,14.17
2018-01-30T17:06:07.319Z,16.97
2018-01-30T17:08:35.006Z,13.83
2018-01-30T17:11:03.440Z,14.10
2018-01-30T17:13:31.135Z,13.17
2018-01-30T17:15:58.602Z,13.43
2018-01-30T17:18:26.877Z,12.73
2018-01-30T17:20:55.377Z,12.63
2018-01-30T17:23:22.871Z,14.00
2018-01-30T17:25:50.521Z,14.53
2018-01-30T17:28:18.258Z,13.77
2018-01-30T17:30:46.517Z,14.57
2018-01-30T17:33:14.132Z,19.60
2018-01-30T17:35:41.738Z,16.30
2018-01-30T17:38:10.032Z,18.93
2018-01-30T17:40:37.545Z,18.40
2018-01-30T17:43:05.003Z,18.60
2018-01-30T17:45:32.580Z,15.50
2018-01-30T17:48:00.773Z,14.80
2018-01-30T17:50:29.282Z,13.37
2018-01-30T17:52:56.815Z,12.80
2018-01-30T17:55:24.314Z,13.37
2018-01-30T17:57:51.843Z,13.80
2018-01-30T18:00:20.418Z,15.20
2018-01-30T18:02:47.970Z,13.97
2018-01-30T18:05:15.542Z,16.50
2018-01-30T18:07:43.815Z,22.93
2018-01-30T18:10:11.363Z,20.43
2018-01-30T18:12:38.857Z,18.77
2018-01-30T18:15:07.130Z,19.00
2018-01-30T18:17:34.958Z,15.97
2018-01-30T18:20:02.804Z,16.30
2018-01-30T18:22:30.299Z,19.50
2018-01-30T18:24:58.583Z,19.40
2018-01-30T18:27:26.762Z,19.00
2018-01-30T18:29:54.455Z,16.23
2018-01-30T18:32:22.707Z,16.07
2018-01-30T18:34:50.200Z,18.20
2018-01-30T18:37:18.112Z,17.50
2018-01-30T18:39:46.956Z,19.07
2018-01-30T18:42:14.710Z,18.70
2018-01-30T18:44:43.163Z,20.03
2018-01-30T18:47:10.624Z,21.00
2018-01-30T18:49:38.095Z,24.57
2018-01-30T18:52:05.593Z,23.50
2018-01-30T18:54:33.891Z,20.80
2018-01-30T18:57:02.168Z,21.27
2018-01-30T18:59:29.615Z,20.00
2018-01-30T19:01:57.107Z,23.50
2018-01-30T19:04:24.622Z,21.83
2018-01-30T19:06:52.865Z,18.73
2018-01-30T19:09:21.989Z,16.77
2018-01-30T19:11:50.251Z,17.13
2018-01-30T19:14:17.695Z,19.93
2018-01-30T19:16:46.822Z,20.50
2018-01-30T19:19:15.115Z,22.33
2018-01-30T19:21:43.198Z,20.10
2018-01-30T19:24:10.656Z,18.50
2018-01-30T19:26:38.125Z,18.20
2018-01-30T19:29:05.822Z,17.03
2018-01-30T19:31:34.678Z,16.43
2018-01-30T19:34:02.723Z,17.67
2018-01-30T19:36:30.241Z,14.43
2018-01-30T19:38:57.699Z,15.60
2018-01-30T19:41:25.232Z,14.00
2018-01-30T19:43:52.691Z,16.33
2018-01-30T19:46:20.188Z,15.17
2018-01-30T19:48:47.671Z,14.00
2018-01-30T19:51:15.157Z,15.73
2018-01-30T19:53:42.657Z,18.47
2018-01-30T19:56:10.146Z,16.20
2018-01-30T19:58:38.422Z,21.77
2018-01-30T20:01:06.727Z,16.90
2018-01-30T20:03:34.217Z,19.27
2018-01-30T20:06:02.097Z,17.40
2018-01-30T20:08:29.629Z,18.97
2018-01-30T20:10:57.096Z,18.73
2018-01-30T20:13:24.586Z,20.37
2018-01-30T20:15:52.016Z,20.10
2018-01-30T20:18:19.819Z,17.97
2018-01-30T20:20:48.055Z,17.70
2018-01-30T20:23:15.583Z,20.77
2018-01-30T20:25:43.323Z,20.80
2018-01-30T20:28:11.555Z,19.27
2018-01-30T20:30:39.027Z,20.77
2018-01-30T20:33:06.510Z,21.50
2018-01-30T20:35:34.791Z,27.83
2018-01-30T20:38:03.011Z,23.37
2018-01-30T20:40:30.689Z,15.20
2018-01-30T20:42:58.181Z,15.70
2018-01-30T20:45:26.761Z,14.20
2018-01-30T20:47:54.625Z,14.83
2018-01-30T20:50:22.136Z,12.97
2018-01-30T20:52:49.615Z,13.60
2018-01-30T20:55:17.104Z,15.03
2018-01-30T20:57:44.562Z,15.13
2018-01-30T21:00:12.027Z,13.63
2018-01-30T21:02:39.678Z,14.67
2018-01-30T21:05:07.356Z,16.10
2018-01-30T21:07:35.591Z,12.83
2018-01-30T21:10:03.133Z,14.50
2018-01-30T21:12:30.621Z,12.87
2018-01-30T21:14:58.144Z,12.97
2018-01-30T21:17:25.570Z,12.90
2018-01-30T21:19:54.044Z,14.03
2018-01-30T21:22:22.306Z,13.50
2018-01-30T21:24:50.698Z,11.83
2018-01-30T21:27:18.964Z,16.50
2018-01-30T21:29:46.591Z,15.77
2018-01-30T21:32:14.078Z,19.20
2018-01-30T21:34:41.595Z,15.93
2018-01-30T21:37:09.083Z,13.07
2018-01-30T21:39:36.536Z,13.20
2018-01-30T21:42:04.304Z,11.03
2018-01-30T21:44:31.791Z,10.70
2018-01-30T21:46:59.261Z,10.43
2018-01-30T21:49:27.544Z,8.80
2018-01-30T21:51:55.746Z,9.33
2018-01-30T21:54:23.435Z,9.70
2018-01-30T21:56:51.185Z,9.60
2018-01-30T21:59:18.716Z,10.10
2018-01-30T22:01:46.226Z,7.93
2018-01-30T22:04:13.822Z,8.37
2018-01-30T22:06:42.065Z,8.40
2018-01-30T22:09:09.627Z,7.27
2018-01-30T22:11:37.084Z,6.70
2018-01-30T22:14:04.756Z,7.23
2018-01-30T22:16:32.254Z,6.80
2018-01-30T22:18:59.737Z,7.00
2018-01-30T22:21:27.343Z,7.73
2018-01-30T22:23:54.882Z,7.87
2018-01-30T22:26:22.329Z,7.45
2018-01-30T22:28:49.781Z,7.63
2018-01-30T22:31:17.254Z,7.50
2018-01-30T22:33:44.851Z,7.40
2018-01-30T22:36:13.118Z,6.63
2018-01-30T22:38:40.612Z,8.27
2018-01-30T22:41:08.842Z,9.70
2018-01-30T22:43:36.298Z,6.40
2018-01-30T22:46:03.773Z,6.20
